Time;durP1;ratioP1;P1;durP2;ratioP2;P2;SDS_P1;SDS_P2;PMS_P1;PMS_P2;Temp;Humidity;BMP_temperature;BMP_pressure;BME280_temperature;BME280_humidity;BME280_pressure;Samples;Min_cycle;Max_cycle;Signal;HPM_P1;HPM_P2
2022/11/22 00:02:12;;;;;;;6.13;3.80;;;6.90;91.10;;;;;;4950232;28;20199;-72
2022/11/22 00:04:37;;;;;;;6.17;3.67;;;6.80;91.00;;;;;;4945052;29;20188;-73
2022/11/22 00:07:03;;;;;;;6.40;3.77;;;6.80;91.00;;;;;;4947463;28;20304;-71
2022/11/22 00:09:28;;;;;;;10.20;3.70;;;6.80;91.10;;;;;;4939436;29;20227;-71
2022/11/22 00:11:54;;;;;;;5.57;3.70;;;6.90;91.20;;;;;;4939771;29;20673;-72
2022/11/22 00:14:20;;;;;;;4.80;3.00;;;6.90;91.20;;;;;;4943122;29;20260;-71
2022/11/22 00:16:45;;;;;;;6.90;4.20;;;6.90;91.20;;;;;;4948056;28;20667;-71
2022/11/22 00:19:11;;;;;;;11.07;3.20;;;7.00;91.30;;;;;;4942612;29;20212;-71
2022/11/22 00:21:36;;;;;;;6.43;3.50;;;7.00;91.10;;;;;;4952799;28;20275;-72
2022/11/22 00:24:02;;;;;;;6.57;3.60;;;7.00;91.10;;;;;;4950507;28;20176;-72
2022/11/22 00:26:28;;;;;;;5.70;3.13;;;6.90;91.10;;;;;;4938340;29;20738;-71
2022/11/22 00:28:53;;;;;;;3.60;2.70;;;6.90;91.20;;;;;;4940447;29;20282;-72
2022/11/22 00:31:19;;;;;;;5.57;2.90;;;6.90;91.10;;;;;;4935181;28;20782;-72
2022/11/22 00:33:44;;;;;;;10.60;3.50;;;7.00;91.10;;;;;;4943397;29;20188;-72
2022/11/22 00:36:10;;;;;;;4.67;3.03;;;6.90;90.90;;;;;;4939305;28;20769;-72
2022/11/22 00:38:36;;;;;;;7.20;3.07;;;7.00;90.80;;;;;;4939640;29;20283;-73
2022/11/22 00:41:01;;;;;;;8.97;3.30;;;7.00;90.60;;;;;;4941632;28;20235;-72
2022/11/22 00:43:27;;;;;;;7.50;3.90;;;7.00;90.50;;;;;;4944772;29;20212;-72
2022/11/22 00:45:52;;;;;;;6.20;3.30;;;6.90;90.40;;;;;;4943878;29;20251;-72
2022/11/22 00:48:18;;;;;;;6.63;3.90;;;6.90;90.60;;;;;;4945522;28;20211;-72
2022/11/22 00:50:44;;;;;;;8.53;3.40;;;6.90;90.90;;;;;;4938925;29;20199;-72
2022/11/22 00:53:09;;;;;;;8.27;3.67;;;6.90;90.80;;;;;;4939692;29;20668;-73
2022/11/22 00:55:35;;;;;;;3.83;2.70;;;7.00;90.80;;;;;;4940030;29;20219;-73
2022/11/22 00:58:00;;;;;;;4.07;2.60;;;7.00;90.30;;;;;;4937313;29;20188;-76
2022/11/22 01:00:26;;;;;;;2.93;2.43;;;7.00;89.90;;;;;;4941172;29;20183;-72
2022/11/22 01:02:52;;;;;;;4.40;2.67;;;7.00;89.90;;;;;;4940360;29;20259;-73
2022/11/22 01:05:18;;;;;;;9.47;2.77;;;7.10;90.00;;;;;;4944478;29;20736;-71
2022/11/22 01:07:44;;;;;;;7.63;3.50;;;7.20;90.00;;;;;;4937292;29;20193;-74
2022/11/22 01:10:10;;;;;;;5.00;2.83;;;7.20;89.30;;;;;;4936905;29;20464;-72
2022/11/22 01:12:35;;;;;;;6.07;3.00;;;7.30;89.00;;;;;;4938281;29;20209;-70
2022/11/22 01:15:01;;;;;;;5.83;2.33;;;7.30;88.60;;;;;;4935627;29;20231;-72
2022/11/22 01:17:27;;;;;;;4.83;2.53;;;7.40;88.30;;;;;;4934783;29;20219;-72
2022/11/22 01:19:53;;;;;;;3.80;2.00;;;7.50;88.00;;;;;;4934502;28;20931;-71
2022/11/22 01:22:19;;;;;;;3.00;2.10;;;7.60;87.30;;;;;;4937464;29;20177;-71
2022/11/22 01:24:44;;;;;;;6.70;2.20;;;7.70;86.60;;;;;;4938262;28;20463;-71
2022/11/22 01:27:10;;;;;;;3.77;2.20;;;7.70;86.50;;;;;;4940827;29;20184;-72
2022/11/22 01:29:36;;;;;;;3.83;2.10;;;7.70;86.60;;;;;;4968280;28;20211;-73
2022/11/22 01:32:01;;;;;;;6.30;2.80;;;7.80;86.50;;;;;;4973743;28;20298;-71
2022/11/22 01:34:27;;;;;;;6.13;2.90;;;7.80;86.50;;;;;;4967007;28;20211;-72
2022/11/22 01:36:52;;;;;;;6.17;2.83;;;7.80;86.60;;;;;;4956432;29;20185;-72
2022/11/22 01:39:18;;;;;;;3.00;2.03;;;7.70;86.80;;;;;;4961516;28;20235;-71
2022/11/22 01:41:44;;;;;;;5.90;2.10;;;7.70;87.00;;;;;;4952599;28;20212;-72
2022/11/22 01:44:22;;;;;;;3.40;2.70;;;7.70;87.10;;;;;;4961873;28;20187;-71
2022/11/22 01:47:04;;;;;;;3.53;2.37;;;7.70;87.10;;;;;;4948598;29;20185;-71
2022/11/22 01:49:41;;;;;;;4.80;2.50;;;7.70;87.30;;;;;;4940633;28;20491;-72
2022/11/22 01:52:14;;;;;;;3.93;2.50;;;7.60;87.30;;;;;;4945255;29;20422;-71
2022/11/22 01:54:42;;;;;;;3.93;2.90;;;7.60;87.60;;;;;;4937459;29;20493;-72
2022/11/22 01:57:17;;;;;;;3.50;2.43;;;7.60;87.70;;;;;;4942227;28;20417;-71
2022/11/22 01:59:52;;;;;;;6.70;2.53;;;7.60;87.80;;;;;;4937622;29;20538;-72
2022/11/22 02:02:18;;;;;;;4.60;2.93;;;7.50;87.80;;;;;;4946872;28;20451;-70
2022/11/22 02:04:44;;;;;;;6.77;2.67;;;7.50;88.30;;;;;;4937772;29;20428;-71
2022/11/22 02:07:21;;;;;;;4.60;3.10;;;7.40;88.40;;;;;;4936978;29;20605;-71
2022/11/22 02:09:50;;;;;;;7.20;3.00;;;7.40;88.60;;;;;;4942014;29;20463;-70
2022/11/22 02:12:18;;;;;;;5.80;3.33;;;7.40;88.90;;;;;;4948162;28;20436;-71
2022/11/22 02:14:45;;;;;;;3.57;2.37;;;7.50;89.00;;;;;;4950256;29;20467;-72
2022/11/22 02:17:11;;;;;;;5.13;3.00;;;7.40;89.20;;;;;;4941815;29;20418;-70
2022/11/22 02:19:45;;;;;;;5.67;3.10;;;7.40;89.30;;;;;;4943744;29;20455;-75
2022/11/22 02:22:34;;;;;;;6.83;3.70;;;7.40;89.50;;;;;;4955376;28;20187;-72
2022/11/22 02:25:17;;;;;;;4.40;2.63;;;7.40;89.60;;;;;;4950429;28;20977;-73
2022/11/22 02:27:43;;;;;;;7.43;3.10;;;7.40;89.90;;;;;;4945774;29;20449;-71
2022/11/22 02:30:09;;;;;;;6.00;3.10;;;7.40;90.10;;;;;;4937123;29;20976;-70
2022/11/22 02:32:35;;;;;;;6.93;2.90;;;7.40;90.20;;;;;;4944150;29;20188;-72
2022/11/22 02:35:01;;;;;;;5.87;2.83;;;7.40;90.30;;;;;;4938881;29;20471;-70
2022/11/22 02:37:30;;;;;;;3.83;2.93;;;7.30;90.30;;;;;;4944514;29;20191;-74
2022/11/22 02:40:00;;;;;;;3.67;2.83;;;7.40;90.30;;;;;;4949697;29;20286;-72
2022/11/22 02:42:27;;;;;;;5.63;2.90;;;7.40;90.30;;;;;;4938534;28;20420;-71
2022/11/22 02:44:53;;;;;;;4.60;3.13;;;7.40;90.30;;;;;;4938895;28;21173;-70
2022/11/22 02:47:18;;;;;;;7.10;2.70;;;7.40;90.30;;;;;;4959027;29;20419;-72
2022/11/22 02:49:44;;;;;;;4.17;2.63;;;7.30;90.30;;;;;;4959458;28;20208;-72
2022/11/22 02:52:09;;;;;;;4.67;3.03;;;7.30;90.30;;;;;;4963673;29;20219;-71
2022/11/22 02:54:35;;;;;;;6.80;2.63;;;7.30;90.30;;;;;;4953568;28;20215;-69
2022/11/22 02:57:04;;;;;;;4.40;2.80;;;7.30;90.40;;;;;;4942868;28;20199;-71
2022/11/22 02:59:29;;;;;;;5.77;2.90;;;7.30;90.30;;;;;;4931648;29;20209;-70
2022/11/22 03:01:55;;;;;;;4.57;2.93;;;7.30;90.30;;;;;;4935646;29;20451;-71
2022/11/22 03:04:23;;;;;;;6.90;2.80;;;7.30;90.30;;;;;;4938023;29;20661;-71
2022/11/22 03:06:58;;;;;;;6.90;3.73;;;7.30;90.20;;;;;;4937728;29;20189;-70
2022/11/22 03:09:25;;;;;;;5.00;2.67;;;7.30;90.30;;;;;;4939636;29;20848;-70
2022/11/22 03:11:51;;;;;;;7.00;2.70;;;7.30;90.40;;;;;;4936791;28;20429;-71
2022/11/22 03:14:16;;;;;;;4.77;2.70;;;7.30;90.30;;;;;;4936677;29;20431;-70
2022/11/22 03:16:43;;;;;;;4.27;2.70;;;7.30;90.20;;;;;;4938148;28;20185;-71
2022/11/22 03:19:10;;;;;;;3.67;2.67;;;7.30;90.30;;;;;;4935240;29;20307;-72
2022/11/22 03:21:36;;;;;;;3.77;2.60;;;7.30;90.30;;;;;;4940468;28;20778;-70
2022/11/22 03:24:02;;;;;;;6.23;2.70;;;7.20;90.40;;;;;;4941073;28;20458;-71
2022/11/22 03:26:28;;;;;;;5.90;2.73;;;7.30;90.50;;;;;;4941784;28;20503;-70
2022/11/22 03:28:53;;;;;;;6.73;2.77;;;7.30;90.40;;;;;;4939865;29;20316;-69
2022/11/22 03:31:19;;;;;;;3.43;2.20;;;7.30;90.00;;;;;;4943070;28;20647;-72
2022/11/22 03:33:44;;;;;;;4.40;2.13;;;7.40;89.60;;;;;;4940191;29;20363;-73
2022/11/22 03:36:10;;;;;;;5.07;2.67;;;7.50;88.90;;;;;;4933334;29;20211;-68
2022/11/22 03:38:36;;;;;;;5.27;2.37;;;7.60;88.10;;;;;;4935218;29;20208;-72
2022/11/22 03:41:01;;;;;;;4.53;2.53;;;7.60;88.40;;;;;;4937654;29;20189;-69
2022/11/22 03:43:27;;;;;;;8.83;2.90;;;7.60;88.90;;;;;;4942453;29;20575;-72
2022/11/22 03:45:52;;;;;;;3.07;2.50;;;7.50;88.90;;;;;;4932921;29;20239;-70
2022/11/22 03:48:18;;;;;;;4.07;2.73;;;7.50;89.20;;;;;;4933303;29;20250;-70
2022/11/22 03:50:44;;;;;;;6.07;2.70;;;7.50;89.30;;;;;;4941418;29;20196;-70
2022/11/22 03:53:10;;;;;;;4.93;2.80;;;7.50;89.50;;;;;;4933994;29;20272;-71
2022/11/22 03:55:36;;;;;;;4.03;2.40;;;7.50;89.50;;;;;;4936252;29;20471;-70
2022/11/22 03:58:02;;;;;;;5.73;2.97;;;7.40;89.60;;;;;;4941122;29;20421;-70
2022/11/22 04:00:28;;;;;;;4.83;2.60;;;7.40;89.50;;;;;;4940624;28;20185;-70
2022/11/22 04:02:53;;;;;;;6.70;2.57;;;7.30;89.90;;;;;;4936900;29;20431;-70
2022/11/22 04:05:19;;;;;;;7.00;3.00;;;7.30;90.10;;;;;;4945960;29;20695;-71
2022/11/22 04:07:45;;;;;;;7.80;2.43;;;7.30;90.20;;;;;;4940172;29;20196;-71
2022/11/22 04:10:10;;;;;;;4.10;2.70;;;7.30;90.30;;;;;;4938133;28;20204;-70
2022/11/22 04:12:36;;;;;;;4.13;3.00;;;7.30;90.30;;;;;;4942253;29;20194;-70
2022/11/22 04:15:08;;;;;;;4.70;3.00;;;7.30;90.50;;;;;;4945430;28;20234;-71
2022/11/22 04:17:39;;;;;;;6.77;3.13;;;7.20;90.60;;;;;;4942475;29;20188;-69
2022/11/22 04:23:19;;;;;;;6.47;3.07;;;7.00;91.00;;;;;;4948875;29;20777;-70
2022/11/22 04:25:47;;;;;;;8.77;3.00;;;7.00;91.20;;;;;;4936849;29;20431;-71
2022/11/22 04:28:15;;;;;;;4.60;2.80;;;7.10;91.30;;;;;;4935578;29;20424;-70
2022/11/22 04:33:25;;;;;;;3.80;2.57;;;7.00;91.10;;;;;;4944177;29;20787;-72
2022/11/22 04:35:51;;;;;;;5.03;2.80;;;7.10;91.20;;;;;;4944382;29;20467;-71
2022/11/22 04:38:17;;;;;;;9.63;3.40;;;7.10;91.10;;;;;;4945418;28;20268;-71
2022/11/22 04:40:44;;;;;;;8.20;3.23;;;7.10;91.20;;;;;;4935538;29;20444;-72
2022/11/22 04:46:05;;;;;;;12.77;3.90;;;7.00;91.20;;;;;;4936360;29;20423;-71
2022/11/22 04:48:31;;;;;;;5.27;2.60;;;6.90;91.30;;;;;;4941238;29;20869;-70
2022/11/22 04:53:43;;;;;;;4.83;2.37;;;6.80;91.70;;;;;;4940502;29;21095;-71
2022/11/22 04:56:08;;;;;;;6.57;2.67;;;6.80;91.70;;;;;;4936009;29;20468;-70
2022/11/22 04:58:34;;;;;;;8.57;2.60;;;6.70;91.70;;;;;;4937170;29;20502;-70
2022/11/22 05:01:00;;;;;;;6.40;2.40;;;6.70;91.80;;;;;;4935986;29;20268;-70
2022/11/22 05:03:25;;;;;;;6.43;2.87;;;6.80;91.70;;;;;;4938998;29;20235;-72
2022/11/22 05:05:51;;;;;;;4.60;2.27;;;6.70;91.60;;;;;;4937857;29;20245;-70
2022/11/22 05:08:17;;;;;;;6.37;2.63;;;6.70;91.70;;;;;;4938948;29;20260;-70
2022/11/22 05:11:17;;;;;;;4.10;2.43;;;6.80;91.60;;;;;;4942693;29;20207;-69
2022/11/22 05:13:37;;;;;;;7.43;2.40;;;6.70;91.50;;;;;;4937556;29;20193;-70
2022/11/22 05:16:05;;;;;;;5.00;2.10;;;6.70;91.50;;;;;;4942073;28;20476;-69
2022/11/22 05:18:31;;;;;;;5.77;2.47;;;6.70;91.50;;;;;;4936514;28;20452;-71
2022/11/22 05:20:59;;;;;;;7.17;3.30;;;6.60;91.50;;;;;;4941824;28;20452;-70
2022/11/22 05:26:10;;;;;;;5.77;3.57;;;6.70;91.70;;;;;;4943101;29;20786;-70
2022/11/22 05:28:37;;;;;;;6.37;3.03;;;6.70;91.60;;;;;;4933971;28;20992;-70
2022/11/22 05:31:12;;;;;;;4.30;2.60;;;6.70;91.60;;;;;;4939023;28;20421;-71
2022/11/22 05:33:40;;;;;;;4.33;2.80;;;6.70;91.60;;;;;;4938890;29;20440;-71
2022/11/22 05:36:06;;;;;;;8.30;4.00;;;6.70;91.70;;;;;;4943540;28;20502;-71
2022/11/22 05:38:36;;;;;;;8.10;3.73;;;6.50;91.70;;;;;;4933350;29;20472;-71
2022/11/22 05:41:03;;;;;;;6.43;3.00;;;6.40;92.10;;;;;;4936948;29;20488;-69
2022/11/22 05:43:29;;;;;;;4.87;3.00;;;6.40;92.50;;;;;;4940329;29;20429;-72
2022/11/22 05:45:55;;;;;;;8.10;2.83;;;6.50;92.70;;;;;;4939704;29;20985;-72
2022/11/22 05:48:21;;;;;;;8.00;3.47;;;6.50;92.70;;;;;;4937554;29;20448;-72
2022/11/22 05:50:47;;;;;;;7.97;3.07;;;6.60;92.70;;;;;;4933919;29;20842;-69
2022/11/22 05:53:12;;;;;;;6.33;2.93;;;6.60;92.60;;;;;;4937152;29;20312;-70
2022/11/22 05:55:38;;;;;;;5.73;3.23;;;6.70;92.20;;;;;;4933338;28;20691;-70
2022/11/22 05:58:04;;;;;;;12.30;3.67;;;6.60;91.90;;;;;;4938834;29;20224;-73
2022/11/22 06:00:29;;;;;;;7.87;3.73;;;6.50;92.00;;;;;;4937615;29;20189;-70
2022/11/22 06:03:00;;;;;;;7.53;3.53;;;6.50;92.30;;;;;;4939894;29;20189;-71
2022/11/22 06:05:26;;;;;;;10.60;4.13;;;6.50;92.40;;;;;;4933184;29;20195;-69
2022/11/22 06:07:52;;;;;;;10.30;3.63;;;6.50;92.60;;;;;;4934164;28;20421;-70
2022/11/22 06:10:18;;;;;;;10.10;3.80;;;6.60;92.60;;;;;;4935485;28;20993;-69
2022/11/22 06:12:44;;;;;;;7.70;3.37;;;6.70;92.60;;;;;;4945295;28;20216;-71
2022/11/22 06:15:10;;;;;;;5.63;3.23;;;6.70;92.30;;;;;;4935904;28;20761;-71
2022/11/22 06:17:35;;;;;;;9.67;3.70;;;6.70;92.30;;;;;;4934325;29;20184;-71
2022/11/22 06:20:01;;;;;;;6.40;3.30;;;6.70;92.20;;;;;;4934152;28;20243;-70
2022/11/22 06:22:26;;;;;;;7.80;4.00;;;6.70;92.10;;;;;;4944506;29;20248;-70
2022/11/22 06:24:52;;;;;;;7.63;3.47;;;6.70;92.10;;;;;;4941450;28;20185;-70
2022/11/22 06:27:18;;;;;;;7.10;3.50;;;6.80;92.10;;;;;;4940568;29;20199;-70
2022/11/22 06:29:43;;;;;;;7.63;3.30;;;6.80;91.90;;;;;;4940512;28;20219;-73
2022/11/22 06:32:09;;;;;;;6.93;3.70;;;6.80;91.80;;;;;;4942438;29;20219;-71
2022/11/22 06:34:35;;;;;;;12.67;3.67;;;6.70;91.80;;;;;;4939490;28;20244;-71
2022/11/22 06:37:00;;;;;;;8.23;3.53;;;6.80;91.80;;;;;;4942546;29;20283;-70
2022/11/22 06:39:26;;;;;;;14.37;3.97;;;6.80;91.70;;;;;;4942682;29;20306;-70
2022/11/22 06:41:51;;;;;;;11.03;3.70;;;6.80;91.70;;;;;;4941793;29;20624;-70
2022/11/22 06:44:17;;;;;;;10.03;3.50;;;6.80;91.50;;;;;;4944488;29;20230;-72
2022/11/22 06:46:42;;;;;;;6.90;3.10;;;6.70;91.40;;;;;;4945219;29;20538;-72
2022/11/22 06:49:08;;;;;;;5.53;3.03;;;6.70;91.50;;;;;;4939781;28;20296;-71
2022/11/22 06:51:34;;;;;;;13.17;3.80;;;6.70;91.50;;;;;;4941925;28;20187;-71
2022/11/22 06:53:59;;;;;;;10.60;3.23;;;6.60;91.60;;;;;;4939964;28;20599;-71
2022/11/22 06:56:39;;;;;;;10.20;2.90;;;6.60;91.60;;;;;;4938891;29;20478;-70
2022/11/22 06:59:06;;;;;;;6.40;3.37;;;6.50;91.60;;;;;;4934547;28;20223;-70
2022/11/22 07:01:33;;;;;;;10.37;3.60;;;6.60;91.70;;;;;;4934006;29;20443;-71
2022/11/22 07:03:59;;;;;;;8.93;3.73;;;6.60;91.60;;;;;;4942828;28;20419;-71
2022/11/22 07:06:27;;;;;;;5.90;2.87;;;6.60;91.70;;;;;;4943722;28;21226;-69
2022/11/22 07:08:53;;;;;;;11.13;3.80;;;6.50;91.70;;;;;;4937927;29;20463;-71
2022/11/22 07:11:22;;;;;;;10.20;3.47;;;6.50;91.70;;;;;;4942678;29;20424;-72
2022/11/22 07:13:49;;;;;;;14.10;4.20;;;6.60;91.70;;;;;;4945767;29;20442;-72
2022/11/22 07:16:19;;;;;;;13.43;3.80;;;6.60;91.70;;;;;;4947749;29;20906;-74
2022/11/22 07:18:44;;;;;;;10.17;3.03;;;6.60;91.50;;;;;;4940792;29;21293;-72
2022/11/22 07:21:12;;;;;;;7.90;2.90;;;6.60;91.50;;;;;;4943376;29;20458;-72
2022/11/22 07:23:39;;;;;;;5.00;2.60;;;6.70;91.30;;;;;;4940080;29;20189;-74
2022/11/22 07:26:05;;;;;;;6.20;2.77;;;6.80;91.20;;;;;;4945898;29;20499;-72
2022/11/22 07:28:31;;;;;;;9.60;2.83;;;6.80;90.90;;;;;;4939326;29;20510;-74
2022/11/22 07:31:02;;;;;;;10.80;3.40;;;6.90;90.20;;;;;;4942180;29;20667;-73
2022/11/22 07:33:28;;;;;;;9.23;3.30;;;7.00;89.70;;;;;;4946889;28;20523;-72
2022/11/22 07:35:54;;;;;;;9.70;3.47;;;7.00;89.30;;;;;;4944887;29;20515;-73
2022/11/22 07:38:19;;;;;;;7.57;3.00;;;7.00;89.20;;;;;;4939686;29;20503;-71
2022/11/22 07:40:45;;;;;;;5.97;3.37;;;7.00;89.50;;;;;;4953665;28;20434;-72
2022/11/22 07:43:10;;;;;;;13.40;3.80;;;6.90;89.50;;;;;;4940987;29;20255;-71
2022/11/22 07:45:36;;;;;;;11.83;4.33;;;7.00;89.60;;;;;;4938782;29;20192;-72
2022/11/22 07:48:02;;;;;;;8.87;5.00;;;7.00;89.60;;;;;;4949152;29;20212;-73
2022/11/22 07:50:28;;;;;;;8.33;4.30;;;6.90;89.60;;;;;;4948295;28;20216;-72
2022/11/22 07:52:57;;;;;;;8.43;4.33;;;7.00;89.60;;;;;;4946874;29;20432;-71
2022/11/22 07:55:25;;;;;;;10.37;4.07;;;7.00;89.60;;;;;;4944620;28;20475;-71
2022/11/22 07:57:57;;;;;;;17.47;3.50;;;7.10;89.50;;;;;;4942900;28;20420;-71
2022/11/22 08:00:23;;;;;;;17.37;3.53;;;7.10;89.20;;;;;;4947207;28;20891;-71
2022/11/22 08:02:48;;;;;;;7.87;3.90;;;7.10;89.00;;;;;;4940134;29;20448;-73
2022/11/22 08:05:15;;;;;;;10.60;3.43;;;7.10;88.90;;;;;;4941877;29;20188;-71
2022/11/22 08:07:45;;;;;;;8.10;3.93;;;7.20;88.70;;;;;;4951229;29;20211;-71
2022/11/22 08:10:11;;;;;;;8.13;3.90;;;7.20;88.70;;;;;;4944335;28;20554;-72
2022/11/22 08:12:37;;;;;;;10.17;3.97;;;7.20;88.70;;;;;;4960420;29;20427;-73
2022/11/22 08:15:03;;;;;;;7.67;3.63;;;7.20;88.30;;;;;;4951159;28;20208;-72
2022/11/22 08:17:28;;;;;;;10.27;3.10;;;7.20;88.30;;;;;;4956033;29;20184;-74
2022/11/22 08:19:54;;;;;;;9.20;3.40;;;7.30;88.40;;;;;;4955199;28;20467;-72
2022/11/22 08:22:19;;;;;;;7.80;3.43;;;7.30;88.10;;;;;;4944400;28;20194;-71
2022/11/22 08:24:45;;;;;;;8.33;2.90;;;7.30;87.30;;;;;;4945825;29;20700;-71
2022/11/22 08:27:11;;;;;;;5.10;2.30;;;7.40;86.60;;;;;;4941383;29;20647;-71
2022/11/22 08:29:36;;;;;;;4.00;2.23;;;7.50;85.60;;;;;;4938142;29;20270;-71
2022/11/22 08:32:02;;;;;;;6.30;2.73;;;7.60;84.60;;;;;;4944505;29;20203;-71
2022/11/22 08:34:27;;;;;;;11.03;2.30;;;7.60;84.90;;;;;;4941680;29;20637;-71
2022/11/22 08:36:53;;;;;;;8.00;2.77;;;7.60;84.90;;;;;;4949262;28;20196;-72
2022/11/22 08:39:20;;;;;;;7.70;2.70;;;7.70;85.00;;;;;;4939190;29;20200;-71
2022/11/22 08:41:46;;;;;;;9.53;2.90;;;7.70;85.50;;;;;;4942038;28;20188;-71
2022/11/22 08:44:12;;;;;;;7.27;3.23;;;7.80;85.90;;;;;;4941310;29;20475;-71
2022/11/22 08:46:37;;;;;;;12.37;3.13;;;7.90;85.70;;;;;;4942545;29;20537;-71
2022/11/22 08:49:05;;;;;;;8.17;3.03;;;7.90;85.70;;;;;;4938038;29;20215;-71
2022/11/22 08:51:31;;;;;;;8.43;2.97;;;7.90;86.00;;;;;;4944552;28;20651;-71
2022/11/22 08:53:57;;;;;;;4.87;2.50;;;8.00;85.60;;;;;;4936265;29;20794;-71
2022/11/22 08:56:23;;;;;;;8.80;3.17;;;8.00;85.50;;;;;;4945236;29;20467;-72
2022/11/22 08:58:48;;;;;;;6.03;2.87;;;8.00;85.70;;;;;;4943999;28;20475;-71
2022/11/22 09:01:16;;;;;;;12.23;2.97;;;8.00;85.50;;;;;;4942467;29;20259;-72
2022/11/22 09:03:43;;;;;;;5.40;2.90;;;8.10;85.50;;;;;;4944678;28;20212;-73
2022/11/22 09:06:12;;;;;;;15.20;3.10;;;8.20;85.50;;;;;;4940477;29;20467;-71
2022/11/22 09:08:37;;;;;;;5.40;2.57;;;8.30;84.90;;;;;;4940945;29;20468;-73
2022/11/22 09:11:12;;;;;;;9.30;4.23;;;8.30;84.60;;;;;;4935659;28;20439;-71
2022/11/22 09:13:38;;;;;;;10.80;3.40;;;8.40;84.60;;;;;;4942481;29;20188;-72
2022/11/22 09:16:12;;;;;;;6.70;2.90;;;8.30;84.70;;;;;;4938271;29;20479;-72
2022/11/22 09:18:38;;;;;;;10.23;3.50;;;8.30;84.10;;;;;;4937904;29;20468;-71
2022/11/22 09:21:09;;;;;;;12.47;4.60;;;8.30;83.80;;;;;;4938100;28;20911;-72
2022/11/22 09:23:36;;;;;;;7.33;3.13;;;8.30;83.70;;;;;;4938746;29;20424;-71
2022/11/22 09:26:05;;;;;;;9.20;2.73;;;8.30;83.70;;;;;;4950507;29;20458;-72
2022/11/22 09:28:31;;;;;;;4.23;2.43;;;8.30;83.30;;;;;;4951382;29;20534;-71
2022/11/22 09:31:02;;;;;;;4.80;2.67;;;8.40;83.10;;;;;;4959966;29;20498;-72
2022/11/22 09:33:28;;;;;;;12.30;3.10;;;8.40;83.00;;;;;;4958222;28;20494;-72
2022/11/22 09:36:06;;;;;;;7.70;2.70;;;8.50;82.80;;;;;;4955743;29;20479;-71
2022/11/22 09:38:33;;;;;;;6.27;2.80;;;8.50;82.50;;;;;;4955102;29;20459;-74
2022/11/22 09:41:23;;;;;;;6.87;2.83;;;8.50;82.70;;;;;;4952820;28;20424;-71
2022/11/22 09:44:03;;;;;;;6.00;2.90;;;8.50;82.80;;;;;;4939624;29;20432;-72
2022/11/22 09:46:47;;;;;;;4.70;2.63;;;8.50;83.00;;;;;;4937631;29;20422;-72
2022/11/22 09:49:37;;;;;;;10.80;3.13;;;8.60;82.20;;;;;;4938351;29;20460;-72
2022/11/22 09:52:12;;;;;;;6.17;2.90;;;8.50;82.40;;;;;;4938942;29;20423;-72
2022/11/22 09:54:45;;;;;;;9.33;3.23;;;8.60;82.70;;;;;;4937930;29;20432;-72
2022/11/22 09:57:20;;;;;;;5.70;2.60;;;8.60;81.80;;;;;;4941874;29;20427;-72
2022/11/22 09:59:49;;;;;;;7.10;2.70;;;8.50;81.40;;;;;;4937886;28;20463;-72
2022/11/22 10:02:28;;;;;;;5.03;2.80;;;8.50;81.90;;;;;;4936805;28;20855;-71
2022/11/22 10:04:58;;;;;;;10.33;3.03;;;8.50;82.40;;;;;;4944772;29;20447;-72
2022/11/22 10:07:34;;;;;;;9.30;3.43;;;8.50;82.40;;;;;;4945393;29;20439;-72
2022/11/22 10:10:03;;;;;;;8.50;3.37;;;8.50;82.20;;;;;;4939172;29;20494;-74
2022/11/22 10:12:37;;;;;;;11.87;3.20;;;8.50;81.80;;;;;;4945017;28;21170;-71
2022/11/22 10:15:49;;;;;;;8.43;2.83;;;8.50;81.70;;;;;;4936340;29;20473;-72
2022/11/22 10:18:36;;;;;;;6.90;2.83;;;8.40;81.70;;;;;;4922774;29;21265;-72
2022/11/22 10:21:01;;;;;;;10.50;2.33;;;8.30;81.80;;;;;;4920427;29;20461;-71
2022/11/22 10:23:28;;;;;;;5.43;2.50;;;8.40;82.10;;;;;;4918111;29;20436;-72
2022/11/22 10:25:57;;;;;;;9.23;2.80;;;8.50;81.80;;;;;;4925705;29;20588;-71
2022/11/22 10:29:03;;;;;;;5.87;2.63;;;8.50;81.50;;;;;;4920012;29;20448;-72
2022/11/22 10:31:52;;;;;;;4.43;2.60;;;8.50;80.90;;;;;;4921877;29;20440;-72
2022/11/22 10:34:32;;;;;;;3.70;2.37;;;8.50;80.90;;;;;;4913688;29;21006;-72
2022/11/22 10:37:04;;;;;;;11.47;3.07;;;8.50;81.20;;;;;;4905970;29;20975;-72
2022/11/22 10:40:01;;;;;;;11.30;3.00;;;8.60;80.60;;;;;;4913768;29;20632;-72
2022/11/22 10:42:58;;;;;;;10.43;2.13;;;8.60;80.50;;;;;;4820198;29;20471;-72
2022/11/22 10:45:31;;;;;;;6.73;3.10;;;8.60;80.30;;;;;;4818826;29;20858;-72
2022/11/22 10:48:26;;;;;;;7.17;2.77;;;8.60;80.20;;;;;;4825799;29;20426;-71
2022/11/22 10:51:12;;;;;;;7.80;2.00;;;8.60;80.00;;;;;;4813247;29;20926;-71
2022/11/22 10:53:59;;;;;;;6.63;2.50;;;8.60;80.00;;;;;;4826729;29;20484;-72
2022/11/22 10:56:39;;;;;;;14.40;2.20;;;8.60;79.60;;;;;;4860630;29;20575;-72
2022/11/22 10:59:20;;;;;;;6.73;2.63;;;8.60;79.60;;;;;;4854160;29;20472;-72
2022/11/22 11:02:07;;;;;;;7.03;2.53;;;8.60;79.20;;;;;;4856931;29;20436;-73
2022/11/22 11:04:35;;;;;;;6.40;2.70;;;8.60;78.60;;;;;;4848105;29;21038;-73
2022/11/22 11:07:04;;;;;;;6.77;2.07;;;8.70;77.80;;;;;;4848948;29;20432;-72
2022/11/22 11:09:33;;;;;;;11.30;2.60;;;8.60;77.40;;;;;;4846897;29;20474;-72
2022/11/22 11:12:01;;;;;;;4.37;2.00;;;8.60;76.70;;;;;;4848678;29;20431;-72
2022/11/22 11:14:29;;;;;;;10.20;2.33;;;8.60;76.20;;;;;;4848472;29;20428;-73
2022/11/22 11:16:54;;;;;;;6.10;2.10;;;8.60;76.20;;;;;;4852321;29;21020;-71
2022/11/22 11:19:23;;;;;;;7.83;2.50;;;8.60;76.20;;;;;;4897242;29;20459;-72
2022/11/22 11:22:06;;;;;;;8.13;2.70;;;8.70;76.20;;;;;;4944070;29;20203;-73
2022/11/22 11:24:39;;;;;;;7.13;2.23;;;8.80;75.70;;;;;;4944203;28;20471;-72
2022/11/22 11:27:06;;;;;;;6.77;1.83;;;8.80;75.20;;;;;;4941379;29;20424;-72
2022/11/22 11:29:37;;;;;;;7.93;2.20;;;8.80;75.10;;;;;;4942641;28;20798;-71
2022/11/22 11:32:09;;;;;;;7.60;3.10;;;8.80;74.80;;;;;;4942081;29;20428;-72
2022/11/22 11:34:37;;;;;;;6.43;1.83;;;8.80;74.60;;;;;;4939410;29;20677;-73
2022/11/22 11:37:04;;;;;;;6.00;1.87;;;8.70;74.80;;;;;;4945149;29;20490;-73
2022/11/22 11:39:34;;;;;;;3.20;2.10;;;8.70;75.10;;;;;;4945634;28;20946;-73
2022/11/22 11:42:18;;;;;;;6.33;2.00;;;8.80;74.90;;;;;;4944740;29;20423;-72
2022/11/22 11:44:44;;;;;;;8.70;2.37;;;8.80;75.10;;;;;;4942874;29;20846;-72
2022/11/22 11:47:17;;;;;;;5.37;2.20;;;8.80;75.20;;;;;;4943774;29;20429;-73
2022/11/22 11:49:49;;;;;;;10.93;1.97;;;8.80;74.00;;;;;;4946445;29;20227;-74
2022/11/22 11:52:21;;;;;;;3.17;1.87;;;8.80;73.60;;;;;;4945355;29;20419;-73
2022/11/22 11:54:51;;;;;;;7.47;2.30;;;8.80;73.70;;;;;;4945008;28;20470;-73
2022/11/22 11:57:43;;;;;;;6.90;2.17;;;8.80;73.70;;;;;;4943019;29;20934;-73
2022/11/22 12:00:25;;;;;;;6.60;1.70;;;8.80;73.00;;;;;;4942963;29;20990;-73
2022/11/22 12:03:03;;;;;;;13.73;2.17;;;8.90;72.10;;;;;;4950223;29;20416;-73
2022/11/22 12:05:31;;;;;;;6.23;1.87;;;9.00;72.30;;;;;;4944005;28;20507;-73
2022/11/22 12:07:57;;;;;;;7.90;2.17;;;9.00;72.10;;;;;;4949052;28;20473;-73
2022/11/22 12:10:29;;;;;;;6.77;2.20;;;9.00;71.80;;;;;;4944751;29;20452;-73
2022/11/22 12:13:16;;;;;;;9.80;1.67;;;8.90;72.30;;;;;;4946451;29;20431;-72
2022/11/22 12:16:00;;;;;;;3.07;1.80;;;8.90;72.60;;;;;;4946695;28;20466;-71
2022/11/22 12:19:03;;;;;;;7.00;1.73;;;9.00;72.60;;;;;;4943267;29;20487;-72
2022/11/22 12:21:50;;;;;;;5.17;1.80;;;9.00;72.00;;;;;;4937568;29;21241;-74
2022/11/22 12:24:43;;;;;;;4.07;1.80;;;9.10;72.40;;;;;;4939367;29;20927;-72
2022/11/22 12:27:10;;;;;;;6.53;1.80;;;9.10;72.30;;;;;;4943238;29;20411;-76
2022/11/22 12:29:39;;;;;;;5.73;1.90;;;9.10;72.40;;;;;;4946040;28;20982;-73
2022/11/22 12:32:19;;;;;;;9.33;2.00;;;9.10;72.30;;;;;;4943448;28;21355;-70
2022/11/22 12:35:00;;;;;;;8.97;1.87;;;9.20;72.40;;;;;;4938837;28;20430;-74
2022/11/22 12:37:37;;;;;;;3.77;1.60;;;9.20;72.60;;;;;;4937355;29;20423;-72
2022/11/22 12:40:13;;;;;;;5.33;2.23;;;9.20;71.70;;;;;;4938679;29;20995;-73
2022/11/22 12:42:51;;;;;;;3.93;1.50;;;9.20;71.80;;;;;;4938714;29;20451;-73
2022/11/22 12:45:41;;;;;;;10.80;2.50;;;9.20;71.40;;;;;;4939846;29;20972;-71
2022/11/22 12:48:15;;;;;;;7.87;2.00;;;9.20;71.70;;;;;;4941867;29;20424;-73
2022/11/22 12:50:45;;;;;;;5.33;1.93;;;9.30;71.30;;;;;;4945251;29;20431;-71
2022/11/22 12:53:19;;;;;;;7.20;1.70;;;9.20;71.00;;;;;;4945363;28;20436;-70
2022/11/22 12:55:53;;;;;;;3.43;1.60;;;9.00;71.40;;;;;;4939543;29;21332;-74
2022/11/22 12:58:28;;;;;;;5.07;1.90;;;9.10;72.00;;;;;;4932194;29;20463;-70
2022/11/22 13:01:13;;;;;;;6.60;1.80;;;9.00;72.10;;;;;;4942896;28;20436;-71
2022/11/22 13:03:54;;;;;;;5.63;1.80;;;9.00;72.40;;;;;;4944285;29;20977;-72
2022/11/22 13:06:23;;;;;;;4.40;1.63;;;9.10;72.60;;;;;;4947943;28;20446;-72
2022/11/22 13:08:52;;;;;;;5.17;1.50;;;9.20;72.40;;;;;;4939174;28;20459;-72
2022/11/22 13:11:33;;;;;;;5.33;1.90;;;9.20;72.40;;;;;;4941990;28;20463;-72
2022/11/22 13:14:32;;;;;;;6.97;2.00;;;9.30;72.40;;;;;;4946983;29;20494;-72
2022/11/22 13:16:58;;;;;;;2.87;1.50;;;9.20;72.30;;;;;;4935037;29;20424;-70
2022/11/22 13:19:28;;;;;;;3.73;1.97;;;9.20;72.30;;;;;;4941600;28;20525;-71
2022/11/22 13:22:15;;;;;;;4.17;1.83;;;9.30;72.30;;;;;;4944674;29;20420;-71
2022/11/22 13:25:09;;;;;;;5.60;2.03;;;9.20;72.30;;;;;;4954508;28;20424;-70